Time;durP1;ratioP1;P1;durP2;ratioP2;P2;SDS_P1;SDS_P2;PMS_P1;PMS_P2;Temp;Humidity;BMP_temperature;BMP_pressure;BME280_temperature;BME280_humidity;BME280_pressure;Samples;Min_cycle;Max_cycle;Signal;HPM_P1;HPM_P2
2023/05/09 00:01:30;;;;;;;5.68;5.05;;;;;;;;;;5030179;28;20110;-92
2023/05/09 00:03:58;;;;;;;5.20;4.70;;;;;;;;;;5013266;28;20106;-91
2023/05/09 00:06:26;;;;;;;5.90;5.28;;;;;;;;;;5013574;28;20057;-92
2023/05/09 00:08:54;;;;;;;5.88;5.25;;;;;;;;;;5012755;28;20046;-92
2023/05/09 00:11:22;;;;;;;5.80;5.15;;;;;;;;;;5012722;28;20557;-92
2023/05/09 00:13:49;;;;;;;6.20;4.53;;;;;;;;;;5013744;28;20410;-91
2023/05/09 00:16:19;;;;;;;7.03;5.80;;;;;;;;;;5013924;28;20081;-92
2023/05/09 00:18:46;;;;;;;7.20;6.00;;;;;;;;;;5013678;28;20069;-92
2023/05/09 00:21:14;;;;;;;5.93;5.35;;;;;;;;;;5012755;28;20473;-92
2023/05/09 00:23:41;;;;;;;7.45;5.13;;;;;;;;;;5013255;28;20062;-92
2023/05/09 00:26:09;;;;;;;8.15;5.82;;;;;;;;;;5012845;28;20042;-91
2023/05/09 00:28:36;;;;;;;7.57;5.15;;;;;;;;;;5012775;28;20060;-91
2023/05/09 00:31:04;;;;;;;11.15;5.15;;;;;;;;;;5013788;28;20042;-92
2023/05/09 00:33:31;;;;;;;5.50;5.07;;;;;;;;;;5012486;28;20057;-92
2023/05/09 00:35:59;;;;;;;5.03;4.65;;;;;;;;;;5012647;28;20049;-92
2023/05/09 00:38:26;;;;;;;5.78;5.18;;;;;;;;;;5013501;28;20057;-91
2023/05/09 00:40:53;;;;;;;5.25;4.75;;;;;;;;;;5013849;28;20487;-91
2023/05/09 00:43:20;;;;;;;6.25;5.63;;;;;;;;;;5013706;28;20049;-91
2023/05/09 00:45:48;;;;;;;6.72;5.22;;;;;;;;;;5012305;28;20491;-92
2023/05/09 00:48:15;;;;;;;8.50;5.03;;;;;;;;;;5012162;28;20057;-91
2023/05/09 00:50:42;;;;;;;5.85;5.22;;;;;;;;;;5013580;28;20050;-92
2023/05/09 00:53:10;;;;;;;5.70;5.20;;;;;;;;;;5012435;28;20049;-92
2023/05/09 00:55:37;;;;;;;6.10;5.60;;;;;;;;;;5014961;28;20052;-91
2023/05/09 00:58:04;;;;;;;5.53;5.03;;;;;;;;;;5016040;28;20466;-92
2023/05/09 01:00:32;;;;;;;6.28;5.47;;;;;;;;;;5015807;28;20045;-91
2023/05/09 01:02:59;;;;;;;5.97;5.47;;;;;;;;;;5017148;28;20550;-91
2023/05/09 01:05:30;;;;;;;6.53;5.18;;;;;;;;;;5016019;28;20050;-92
2023/05/09 01:08:02;;;;;;;6.70;6.07;;;;;;;;;;5016970;28;20486;-92
2023/05/09 01:10:32;;;;;;;5.93;5.43;;;;;;;;;;5016246;28;20402;-91
2023/05/09 01:13:22;;;;;;;6.65;5.93;;;;;;;;;;5017336;28;20050;-92
2023/05/09 01:16:10;;;;;;;6.40;5.80;;;;;;;;;;5039202;28;20050;-93
2023/05/09 01:18:45;;;;;;;7.03;6.32;;;;;;;;;;5035331;28;20088;-92
2023/05/09 01:21:20;;;;;;;5.72;5.22;;;;;;;;;;5015234;28;20046;-92
2023/05/09 01:23:59;;;;;;;6.28;5.57;;;;;;;;;;5015202;28;20054;-91
2023/05/09 01:26:41;;;;;;;6.70;6.00;;;;;;;;;;5015820;28;20061;-91
2023/05/09 01:29:08;;;;;;;7.35;6.13;;;;;;;;;;5016089;28;20056;-91
2023/05/09 01:31:37;;;;;;;7.13;6.03;;;;;;;;;;5016727;28;20088;-92
2023/05/09 01:34:05;;;;;;;6.47;5.72;;;;;;;;;;5016539;28;20077;-92
2023/05/09 01:36:33;;;;;;;6.65;5.75;;;;;;;;;;5015500;28;20496;-92
2023/05/09 01:39:01;;;;;;;9.13;6.13;;;;;;;;;;5016736;28;20061;-92
2023/05/09 01:41:30;;;;;;;6.97;6.28;;;;;;;;;;5015585;28;20052;-91
2023/05/09 01:43:58;;;;;;;6.60;5.63;;;;;;;;;;5015022;28;20056;-92
2023/05/09 01:46:26;;;;;;;7.25;5.65;;;;;;;;;;5016488;28;20056;-91
2023/05/09 01:48:54;;;;;;;7.85;6.03;;;;;;;;;;5015260;28;20077;-92
2023/05/09 01:51:21;;;;;;;7.25;6.53;;;;;;;;;;5015202;28;20045;-91
2023/05/09 01:53:49;;;;;;;6.68;6.00;;;;;;;;;;5016031;28;20050;-92
2023/05/09 01:56:16;;;;;;;7.45;6.35;;;;;;;;;;5016372;28;20042;-91
2023/05/09 01:58:47;;;;;;;7.50;6.10;;;;;;;;;;5016290;28;20057;-91
2023/05/09 02:01:14;;;;;;;6.93;6.25;;;;;;;;;;5015118;28;20132;-90
2023/05/09 02:03:42;;;;;;;6.30;5.63;;;;;;;;;;5014763;28;20071;-90
2023/05/09 02:06:10;;;;;;;6.97;6.00;;;;;;;;;;5014855;28;20052;-92
2023/05/09 02:08:37;;;;;;;6.28;5.78;;;;;;;;;;5014918;28;20136;-92
2023/05/09 02:11:05;;;;;;;6.78;6.07;;;;;;;;;;5014542;28;20164;-91
2023/05/09 02:13:32;;;;;;;10.18;7.05;;;;;;;;;;5013053;28;20061;-91
2023/05/09 02:16:00;;;;;;;6.60;6.00;;;;;;;;;;5014795;28;20045;-91
2023/05/09 02:18:28;;;;;;;6.57;5.68;;;;;;;;;;5014471;28;20505;-91
2023/05/09 02:20:55;;;;;;;10.40;6.25;;;;;;;;;;5014708;28;20111;-91
2023/05/09 02:23:22;;;;;;;6.53;5.93;;;;;;;;;;5014268;28;20367;-92
2023/05/09 02:25:50;;;;;;;6.10;5.60;;;;;;;;;;5015476;28;20667;-91
2023/05/09 02:28:18;;;;;;;7.22;5.57;;;;;;;;;;5016198;28;20483;-91
2023/05/09 02:30:46;;;;;;;6.88;6.18;;;;;;;;;;5036373;28;20049;-90
2023/05/09 02:33:14;;;;;;;6.47;5.88;;;;;;;;;;5022746;28;20482;-91
2023/05/09 02:35:42;;;;;;;8.10;6.10;;;;;;;;;;5013917;28;20062;-91
2023/05/09 02:38:09;;;;;;;6.72;5.95;;;;;;;;;;5014301;28;20049;-91
2023/05/09 02:40:36;;;;;;;6.68;6.10;;;;;;;;;;5013843;28;20502;-91
2023/05/09 02:43:04;;;;;;;6.85;6.22;;;;;;;;;;5013976;28;20109;-91
2023/05/09 02:45:31;;;;;;;7.55;6.32;;;;;;;;;;5015145;28;20057;-90
2023/05/09 02:47:58;;;;;;;7.00;6.30;;;;;;;;;;5014114;28;20076;-91
2023/05/09 02:50:25;;;;;;;7.25;5.70;;;;;;;;;;5013873;28;20084;-91
2023/05/09 02:52:52;;;;;;;6.40;5.80;;;;;;;;;;5016133;28;20081;-91
2023/05/09 02:55:20;;;;;;;6.68;6.07;;;;;;;;;;5022379;28;20512;-91
2023/05/09 02:57:47;;;;;;;8.23;6.50;;;;;;;;;;5014693;28;20152;-91
2023/05/09 03:00:24;;;;;;;7.35;6.60;;;;;;;;;;5014372;28;20092;-91
2023/05/09 03:02:51;;;;;;;6.60;6.00;;;;;;;;;;5014598;28;20383;-91
2023/05/09 03:05:19;;;;;;;8.48;6.10;;;;;;;;;;5013602;28;20104;-91
2023/05/09 03:07:46;;;;;;;6.35;5.75;;;;;;;;;;5013162;28;20046;-91
2023/05/09 03:10:13;;;;;;;9.50;6.60;;;;;;;;;;5013686;28;20501;-91
2023/05/09 03:12:42;;;;;;;7.80;7.00;;;;;;;;;;5013220;28;20049;-90
2023/05/09 03:15:10;;;;;;;7.93;6.70;;;;;;;;;;5014020;28;20498;-91
2023/05/09 03:17:37;;;;;;;7.13;6.30;;;;;;;;;;5013177;28;20388;-91
2023/05/09 03:20:05;;;;;;;7.68;6.70;;;;;;;;;;5012665;28;20054;-91
2023/05/09 03:22:32;;;;;;;6.43;5.93;;;;;;;;;;5014010;28;20052;-91
2023/05/09 03:24:59;;;;;;;7.40;6.28;;;;;;;;;;5012737;28;20042;-91
2023/05/09 03:27:26;;;;;;;7.10;6.40;;;;;;;;;;5013088;28;20049;-91
2023/05/09 03:29:54;;;;;;;7.07;6.38;;;;;;;;;;5013372;28;20054;-90
2023/05/09 03:32:21;;;;;;;8.98;6.93;;;;;;;;;;5013234;28;20054;-90
2023/05/09 03:34:48;;;;;;;8.07;7.28;;;;;;;;;;5012878;28;20219;-91
2023/05/09 03:37:15;;;;;;;7.35;6.57;;;;;;;;;;5013099;28;20053;-91
2023/05/09 03:39:42;;;;;;;7.85;7.15;;;;;;;;;;5013277;28;20050;-91
2023/05/09 03:42:10;;;;;;;7.75;7.07;;;;;;;;;;5014618;28;20046;-90
2023/05/09 03:44:37;;;;;;;10.32;8.02;;;;;;;;;;5023231;28;20052;-90
2023/05/09 03:47:04;;;;;;;8.45;7.45;;;;;;;;;;5031753;28;20041;-89
2023/05/09 03:49:31;;;;;;;8.48;7.20;;;;;;;;;;5014942;28;20050;-90
2023/05/09 03:51:58;;;;;;;8.85;7.95;;;;;;;;;;5014089;28;20053;-91
2023/05/09 03:54:26;;;;;;;10.18;7.47;;;;;;;;;;5012955;28;20137;-91
2023/05/09 03:56:53;;;;;;;9.07;8.05;;;;;;;;;;5012908;28;20132;-91
2023/05/09 03:59:20;;;;;;;10.13;7.95;;;;;;;;;;5013642;28;20140;-91
2023/05/09 04:01:47;;;;;;;10.85;8.48;;;;;;;;;;5012892;28;20275;-91
2023/05/09 04:04:15;;;;;;;11.77;8.77;;;;;;;;;;5012749;28;20050;-90
2023/05/09 04:06:42;;;;;;;9.02;8.13;;;;;;;;;;5013162;28;20048;-91
2023/05/09 04:09:09;;;;;;;11.43;8.88;;;;;;;;;;5014049;28;20049;-91
2023/05/09 04:11:36;;;;;;;15.18;8.88;;;;;;;;;;5012825;28;20050;-90
2023/05/09 04:14:05;;;;;;;10.55;8.70;;;;;;;;;;5012615;28;20057;-91
2023/05/09 04:16:33;;;;;;;9.63;8.60;;;;;;;;;;5013388;28;20505;-90
2023/05/09 04:19:01;;;;;;;22.73;15.60;;;;;;;;;;5012946;28;20050;-90
2023/05/09 04:21:28;;;;;;;19.13;13.77;;;;;;;;;;5012565;28;20053;-90
2023/05/09 04:23:55;;;;;;;21.30;15.70;;;;;;;;;;5012541;28;20058;-90
2023/05/09 04:26:23;;;;;;;22.00;14.63;;;;;;;;;;5013875;28;20050;-91
2023/05/09 04:28:51;;;;;;;10.63;9.30;;;;;;;;;;5012308;28;20050;-90
2023/05/09 04:31:18;;;;;;;9.15;8.18;;;;;;;;;;5017022;28;20929;-91
2023/05/09 04:33:46;;;;;;;12.60;8.95;;;;;;;;;;5017204;28;20109;-90
2023/05/09 04:36:13;;;;;;;10.05;8.23;;;;;;;;;;5017184;28;20487;-90
2023/05/09 04:38:40;;;;;;;10.95;7.85;;;;;;;;;;5016478;28;20045;-91
2023/05/09 04:41:08;;;;;;;8.93;7.97;;;;;;;;;;5016161;28;20084;-91
2023/05/09 04:43:35;;;;;;;9.10;7.78;;;;;;;;;;5015680;28;20056;-90
2023/05/09 04:46:02;;;;;;;9.55;8.55;;;;;;;;;;5016871;28;20042;-91
2023/05/09 04:48:29;;;;;;;8.85;7.60;;;;;;;;;;5016124;28;20046;-91
2023/05/09 04:50:57;;;;;;;8.65;7.75;;;;;;;;;;5015827;28;20050;-91
2023/05/09 04:53:24;;;;;;;12.90;8.48;;;;;;;;;;5016042;28;20054;-91
2023/05/09 04:55:52;;;;;;;9.20;7.72;;;;;;;;;;5017364;28;20116;-91
2023/05/09 04:58:19;;;;;;;8.52;7.72;;;;;;;;;;5018622;28;20060;-91
2023/05/09 05:00:46;;;;;;;12.45;8.20;;;;;;;;;;5034325;28;20088;-91
2023/05/09 05:03:14;;;;;;;9.93;7.57;;;;;;;;;;5030810;28;20061;-92
2023/05/09 05:05:41;;;;;;;7.78;7.10;;;;;;;;;;5021797;28;20060;-90
2023/05/09 05:08:08;;;;;;;6.57;6.07;;;;;;;;;;5018050;28;20046;-91
2023/05/09 05:10:35;;;;;;;9.82;5.80;;;;;;;;;;5015586;28;20057;-91
2023/05/09 05:13:02;;;;;;;6.30;5.07;;;;;;;;;;5015787;28;20042;-91
2023/05/09 05:15:30;;;;;;;5.00;4.50;;;;;;;;;;5015350;28;20053;-92
2023/05/09 05:17:57;;;;;;;4.07;3.67;;;;;;;;;;5015731;28;20049;-92
2023/05/09 05:20:27;;;;;;;6.13;3.40;;;;;;;;;;5016715;28;20137;-91
2023/05/09 05:22:54;;;;;;;12.13;3.85;;;;;;;;;;5015292;28;20479;-91
2023/05/09 05:25:22;;;;;;;8.93;3.15;;;;;;;;;;5013856;28;20049;-92
2023/05/09 05:27:49;;;;;;;6.30;2.70;;;;;;;;;;5015301;28;20050;-92
2023/05/09 05:30:17;;;;;;;3.58;2.55;;;;;;;;;;5015715;28;20521;-92
2023/05/09 05:32:44;;;;;;;2.40;2.30;;;;;;;;;;5016958;28;20060;-92
2023/05/09 05:35:11;;;;;;;5.78;2.60;;;;;;;;;;5015329;28;20052;-92
2023/05/09 05:37:39;;;;;;;12.57;3.63;;;;;;;;;;5015786;28;20050;-92
2023/05/09 05:40:07;;;;;;;4.57;2.20;;;;;;;;;;5015688;28;20482;-93
2023/05/09 05:42:34;;;;;;;4.88;2.05;;;;;;;;;;5014198;28;20050;-93
2023/05/09 05:45:04;;;;;;;5.53;2.30;;;;;;;;;;5018107;28;20046;-93
2023/05/09 05:47:35;;;;;;;6.35;2.53;;;;;;;;;;5017110;28;20050;-92
2023/05/09 05:50:05;;;;;;;2.55;2.38;;;;;;;;;;5017455;28;20049;-93
2023/05/09 05:52:33;;;;;;;2.28;2.08;;;;;;;;;;5017925;28;20046;-92
2023/05/09 05:55:00;;;;;;;2.38;2.03;;;;;;;;;;5017089;28;20056;-93
2023/05/09 05:57:27;;;;;;;5.07;2.33;;;;;;;;;;5017928;28;20536;-92
2023/05/09 05:59:55;;;;;;;8.93;2.50;;;;;;;;;;5016235;28;20050;-92
2023/05/09 06:02:22;;;;;;;5.60;3.17;;;;;;;;;;5018716;28;20477;-92
2023/05/09 06:04:49;;;;;;;13.10;3.30;;;;;;;;;;5020099;28;20057;-93
2023/05/09 06:07:16;;;;;;;26.73;5.53;;;;;;;;;;5019426;28;20046;-93
2023/05/09 06:09:43;;;;;;;16.40;5.53;;;;;;;;;;5015868;28;20068;-92
2023/05/09 06:12:15;;;;;;;18.55;5.32;;;;;;;;;;5015430;28;20045;-92
2023/05/09 06:14:42;;;;;;;16.10;5.25;;;;;;;;;;5020893;28;20030;-92
2023/05/09 06:17:09;;;;;;;19.50;5.75;;;;;;;;;;5027923;28;20046;-93
2023/05/09 06:19:37;;;;;;;18.52;5.45;;;;;;;;;;5016682;28;20053;-93
2023/05/09 06:22:04;;;;;;;17.63;4.88;;;;;;;;;;5015506;28;20342;-92
2023/05/09 06:24:31;;;;;;;12.10;4.78;;;;;;;;;;5014724;28;20045;-93
2023/05/09 06:27:02;;;;;;;15.93;4.72;;;;;;;;;;5014682;28;20133;-92
2023/05/09 06:29:29;;;;;;;17.75;4.85;;;;;;;;;;5015643;28;20133;-93
2023/05/09 06:31:57;;;;;;;19.15;4.75;;;;;;;;;;5014554;28;20488;-92
2023/05/09 06:34:24;;;;;;;15.10;4.47;;;;;;;;;;5015305;28;20056;-93
2023/05/09 06:36:51;;;;;;;15.77;6.28;;;;;;;;;;5014444;28;20054;-92
2023/05/09 06:39:18;;;;;;;12.13;3.70;;;;;;;;;;5015261;28;20523;-93
2023/05/09 06:41:45;;;;;;;7.72;3.63;;;;;;;;;;5014518;28;20105;-94
2023/05/09 06:44:13;;;;;;;9.32;3.70;;;;;;;;;;5013912;28;20413;-91
2023/05/09 06:46:40;;;;;;;11.15;3.10;;;;;;;;;;5014514;28;20054;-90
2023/05/09 06:49:07;;;;;;;13.43;4.05;;;;;;;;;;5013993;28;20057;-91
2023/05/09 06:51:35;;;;;;;13.35;4.32;;;;;;;;;;5014249;28;20565;-90
2023/05/09 06:54:02;;;;;;;15.43;5.75;;;;;;;;;;5013767;28;20550;-91
2023/05/09 06:56:30;;;;;;;11.52;4.32;;;;;;;;;;5014925;28;20057;-90
2023/05/09 06:58:57;;;;;;;19.23;4.18;;;;;;;;;;5013944;28;20406;-91
2023/05/09 07:01:24;;;;;;;10.02;3.85;;;;;;;;;;5013875;28;20483;-91
2023/05/09 07:03:52;;;;;;;7.97;5.88;;;;;;;;;;5014229;28;20108;-91
2023/05/09 07:06:19;;;;;;;5.13;2.88;;;;;;;;;;5013600;28;20060;-91
2023/05/09 07:08:46;;;;;;;10.95;3.30;;;;;;;;;;5014655;28;20433;-92
2023/05/09 07:11:14;;;;;;;2.50;2.35;;;;;;;;;;5014988;28;20056;-92
2023/05/09 07:13:41;;;;;;;4.97;2.42;;;;;;;;;;5020898;28;20065;-91
2023/05/09 07:16:08;;;;;;;3.47;2.15;;;;;;;;;;5021269;28;20050;-92
2023/05/09 07:18:35;;;;;;;3.47;2.90;;;;;;;;;;5015612;28;20042;-92
2023/05/09 07:21:03;;;;;;;3.20;2.28;;;;;;;;;;5014125;28;20061;-92
2023/05/09 07:23:30;;;;;;;3.42;3.13;;;;;;;;;;5014523;28;20050;-92
2023/05/09 07:25:58;;;;;;;3.00;2.70;;;;;;;;;;5014556;28;20049;-92
2023/05/09 07:28:26;;;;;;;6.97;3.17;;;;;;;;;;5013358;28;20041;-92
2023/05/09 07:30:57;;;;;;;2.80;2.60;;;;;;;;;;5021036;28;20084;-91
2023/05/09 07:33:24;;;;;;;6.70;3.30;;;;;;;;;;5018597;28;20088;-93
2023/05/09 07:35:51;;;;;;;3.88;2.70;;;;;;;;;;5013216;28;20057;-91
2023/05/09 07:38:19;;;;;;;12.20;4.55;;;;;;;;;;5013576;28;20125;-90
2023/05/09 07:40:46;;;;;;;3.78;3.10;;;;;;;;;;5013425;28;20053;-90
2023/05/09 07:43:13;;;;;;;4.53;3.15;;;;;;;;;;5013139;28;20073;-92
2023/05/09 07:45:41;;;;;;;3.10;2.83;;;;;;;;;;5013502;28;20559;-92
2023/05/09 07:48:08;;;;;;;7.25;2.78;;;;;;;;;;5012994;28;20056;-92
2023/05/09 07:50:36;;;;;;;2.63;2.50;;;;;;;;;;5014629;28;20080;-93
2023/05/09 07:53:03;;;;;;;4.18;2.30;;;;;;;;;;5012876;28;20064;-93
2023/05/09 07:55:31;;;;;;;5.68;3.10;;;;;;;;;;5012936;28;20054;-93
2023/05/09 07:57:58;;;;;;;3.17;2.58;;;;;;;;;;5013272;28;20081;-93
2023/05/09 08:00:25;;;;;;;2.90;2.70;;;;;;;;;;5012998;28;20056;-92
2023/05/09 08:02:53;;;;;;;5.00;2.53;;;;;;;;;;5013537;28;20052;-86
2023/05/09 08:05:20;;;;;;;7.10;2.88;;;;;;;;;;5016035;28;20104;-84
2023/05/09 08:07:47;;;;;;;2.90;2.67;;;;;;;;;;5017812;28;20050;-89
2023/05/09 08:10:15;;;;;;;6.43;2.80;;;;;;;;;;5017321;28;20491;-92
2023/05/09 08:12:42;;;;;;;3.95;2.90;;;;;;;;;;5017362;28;20085;-91
2023/05/09 08:15:10;;;;;;;4.55;3.20;;;;;;;;;;5016926;28;20108;-93
2023/05/09 08:17:37;;;;;;;3.78;3.10;;;;;;;;;;5018849;28;20046;-91
2023/05/09 08:20:04;;;;;;;3.03;2.83;;;;;;;;;;5018037;28;20057;-87
2023/05/09 08:22:31;;;;;;;4.93;3.22;;;;;;;;;;5018188;28;20080;-92
2023/05/09 08:24:59;;;;;;;6.07;3.13;;;;;;;;;;5017361;28;20053;-91
2023/05/09 08:27:26;;;;;;;3.35;3.10;;;;;;;;;;5019060;28;20056;-93
2023/05/09 08:29:53;;;;;;;3.75;3.33;;;;;;;;;;5016981;28;20053;-92
2023/05/09 08:32:20;;;;;;;7.63;4.30;;;;;;;;;;5016995;28;20049;-87
2023/05/09 08:34:47;;;;;;;5.53;4.72;;;;;;;;;;5017554;28;20048;-93
2023/05/09 08:37:15;;;;;;;4.68;3.83;;;;;;;;;;5017988;28;20050;-89
2023/05/09 08:39:42;;;;;;;8.77;4.25;;;;;;;;;;5017029;28;20046;-91
2023/05/09 08:42:10;;;;;;;4.45;4.07;;;;;;;;;;5016403;28;20046;-91
2023/05/09 08:44:37;;;;;;;4.47;4.10;;;;;;;;;;5016130;28;20049;-91
2023/05/09 08:47:04;;;;;;;6.97;4.20;;;;;;;;;;5031069;28;20042;-91
2023/05/09 08:49:32;;;;;;;5.93;4.55;;;;;;;;;;5018723;28;20549;-90
2023/05/09 08:51:59;;;;;;;5.10;4.50;;;;;;;;;;5015980;28;20042;-90
2023/05/09 08:54:27;;;;;;;6.72;3.95;;;;;;;;;;5015462;28;20482;-89
2023/05/09 08:56:54;;;;;;;6.82;3.80;;;;;;;;;;5016140;28;20053;-90
2023/05/09 08:59:22;;;;;;;4.25;3.90;;;;;;;;;;5016162;28;20049;-89
2023/05/09 09:01:49;;;;;;;5.90;3.90;;;;;;;;;;5015496;28;20054;-89
2023/05/09 09:04:20;;;;;;;43.67;6.43;;;;;;;;;;5015829;28;20058;-89
2023/05/09 09:06:47;;;;;;;6.80;3.60;;;;;;;;;;5016601;28;20053;-91
2023/05/09 09:09:14;;;;;;;3.60;3.22;;;;;;;;;;5015699;28;20054;-89
2023/05/09 09:11:42;;;;;;;3.35;3.10;;;;;;;;;;5015732;28;20057;-91
2023/05/09 09:14:15;;;;;;;3.88;3.58;;;;;;;;;;5015746;28;20058;-88
2023/05/09 09:16:44;;;;;;;5.68;3.67;;;;;;;;;;5015112;28;20052;-88
2023/05/09 09:19:12;;;;;;;4.43;3.17;;;;;;;;;;5015460;28;20042;-88
2023/05/09 09:21:41;;;;;;;15.10;4.00;;;;;;;;;;5015534;28;20062;-89
2023/05/09 09:24:09;;;;;;;6.25;3.08;;;;;;;;;;5015472;28;20470;-90
2023/05/09 09:26:43;;;;;;;2.88;2.78;;;;;;;;;;5016027;28;20046;-88
2023/05/09 09:29:11;;;;;;;2.83;2.72;;;;;;;;;;5019842;28;20060;-89
2023/05/09 09:31:38;;;;;;;4.07;3.22;;;;;;;;;;5016524;28;20495;-87
2023/05/09 09:34:06;;;;;;;7.50;3.58;;;;;;;;;;5016212;28;20046;-90
2023/05/09 09:36:34;;;;;;;3.65;2.95;;;;;;;;;;5016186;28;20049;-88
2023/05/09 09:39:03;;;;;;;6.03;2.83;;;;;;;;;;5015138;28;20084;-89
2023/05/09 09:41:31;;;;;;;3.67;2.63;;;;;;;;;;5015746;28;20131;-91
2023/05/09 09:43:58;;;;;;;2.78;2.47;;;;;;;;;;5015358;28;20072;-90
2023/05/09 09:46:26;;;;;;;32.85;5.53;;;;;;;;;;5015532;28;20497;-90
2023/05/09 09:48:56;;;;;;;3.15;2.90;;;;;;;;;;5015186;28;20078;-89
2023/05/09 09:51:27;;;;;;;2.72;2.15;;;;;;;;;;5015075;28;20387;-90
2023/05/09 09:53:55;;;;;;;2.47;2.28;;;;;;;;;;5015141;28;20046;-88
2023/05/09 09:56:37;;;;;;;5.50;1.98;;;;;;;;;;5014965;28;20050;-90
2023/05/09 09:59:09;;;;;;;3.20;2.15;;;;;;;;;;5014756;28;20396;-86
2023/05/09 10:01:36;;;;;;;2.03;1.92;;;;;;;;;;5018620;28;20049;-87
2023/05/09 10:04:03;;;;;;;23.52;5.55;;;;;;;;;;5022195;28;20054;-89
2023/05/09 10:06:31;;;;;;;3.95;2.22;;;;;;;;;;5015317;28;20046;-89
2023/05/09 10:08:58;;;;;;;20.73;5.10;;;;;;;;;;5014984;28;20058;-90
2023/05/09 10:11:25;;;;;;;3.58;2.58;;;;;;;;;;5015013;28;20046;-85
2023/05/09 10:13:53;;;;;;;4.32;2.42;;;;;;;;;;5015698;28;20050;-89
2023/05/09 10:16:20;;;;;;;1.90;1.80;;;;;;;;;;5014420;28;20057;-89
2023/05/09 10:19:02;;;;;;;1.98;1.88;;;;;;;;;;5014702;28;20046;-90
2023/05/09 10:21:30;;;;;;;3.90;1.90;;;;;;;;;;5015834;28;20410;-90
2023/05/09 10:23:58;;;;;;;4.60;2.30;;;;;;;;;;5014736;28;20053;-90
2023/05/09 10:26:30;;;;;;;5.55;1.90;;;;;;;;;;5015645;28;20387;-87
2023/05/09 10:29:01;;;;;;;2.33;1.88;;;;;;;;;;5014314;28;20042;-90
2023/05/09 10:31:32;;;;;;;2.25;2.13;;;;;;;;;;5015440;28;20049;-88
2023/05/09 10:34:01;;;;;;;3.72;2.10;;;;;;;;;;5014778;28;20053;-92
2023/05/09 10:36:28;;;;;;;2.80;1.83;;;;;;;;;;5014510;28;20053;-90
2023/05/09 10:38:55;;;;;;;5.30;2.08;;;;;;;;;;5014855;28;20049;-89
2023/05/09 10:41:23;;;;;;;4.18;2.13;;;;;;;;;;5016619;28;20389;-90
2023/05/09 10:43:50;;;;;;;3.08;2.10;;;;;;;;;;5014227;28;20057;-88
2023/05/09 10:46:18;;;;;;;2.40;1.75;;;;;;;;;;5014232;28;20482;-86
2023/05/09 10:48:47;;;;;;;15.10;2.85;;;;;;;;;;5014489;28;20140;-90
2023/05/09 10:51:15;;;;;;;13.32;2.70;;;;;;;;;;5014053;28;20054;-87
2023/05/09 10:53:42;;;;;;;3.20;2.13;;;;;;;;;;5014905;28;20046;-88
2023/05/09 10:56:22;;;;;;;7.00;2.50;;;;;;;;;;5012881;28;20050;-92
2023/05/09 10:58:49;;;;;;;5.07;2.13;;;;;;;;;;5014408;28;20129;-87
2023/05/09 11:01:28;;;;;;;2.95;1.98;;;;;;;;;;5014634;28;20049;-89
2023/05/09 11:03:56;;;;;;;3.30;1.88;;;;;;;;;;5014218;28;20112;-89
2023/05/09 11:06:39;;;;;;;1.95;1.73;;;;;;;;;;5013540;28;20049;-87
2023/05/09 11:09:28;;;;;;;1.70;1.60;;;;;;;;;;5013914;28;20391;-91
2023/05/09 11:12:15;;;;;;;1.60;1.50;;;;;;;;;;5014547;28;20125;-89
2023/05/09 11:14:47;;;;;;;2.45;1.42;;;;;;;;;;5014602;28;20046;-92
2023/05/09 11:17:14;;;;;;;3.00;1.60;;;;;;;;;;5014316;28;20054;-88
2023/05/09 11:19:44;;;;;;;1.52;1.42;;;;;;;;;;5025369;28;20050;-88
2023/05/09 11:22:13;;;;;;;1.50;1.40;;;;;;;;;;5016157;28;20057;-94
2023/05/09 11:24:45;;;;;;;3.53;1.58;;;;;;;;;;5014018;28;20144;-88
2023/05/09 11:27:15;;;;;;;1.40;1.40;;;;;;;;;;5015033;28;20049;-90
2023/05/09 11:29:46;;;;;;;3.63;1.80;;;;;;;;;;5014253;28;20058;-89
2023/05/09 11:32:14;;;;;;;4.55;1.30;;;;;;;;;;5014378;28;20124;-87
2023/05/09 11:34:45;;;;;;;3.08;1.55;;;;;;;;;;5013542;28;20080;-88
2023/05/09 11:37:19;;;;;;;1.60;1.50;;;;;;;;;;5018066;28;20474;-92
2023/05/09 11:39:57;;;;;;;4.57;1.88;;;;;;;;;;5023232;28;20050;-88
2023/05/09 11:42:27;;;;;;;2.75;1.58;;;;;;;;;;5018354;28;20141;-94
2023/05/09 11:44:54;;;;;;;2.42;1.50;;;;;;;;;;5015215;28;20050;-90
2023/05/09 11:47:21;;;;;;;1.50;1.40;;;;;;;;;;5013713;28;20522;-90
2023/05/09 11:49:49;;;;;;;5.55;2.10;;;;;;;;;;5013569;28;20107;-92
2023/05/09 11:52:16;;;;;;;1.80;1.70;;;;;;;;;;5013339;28;20056;-89
2023/05/09 11:54:43;;;;;;;1.60;1.38;;;;;;;;;;5012744;28;20499;-88
2023/05/09 11:57:16;;;;;;;1.63;1.27;;;;;;;;;;5013365;28;20049;-89
2023/05/09 11:59:44;;;;;;;1.42;1.42;;;;;;;;;;5014162;28;20064;-90
2023/05/09 12:02:11;;;;;;;2.28;1.45;;;;;;;;;;5013135;28;20057;-89
2023/05/09 12:04:38;;;;;;;1.60;1.50;;;;;;;;;;5013162;28;20050;-88
2023/05/09 12:07:11;;;;;;;1.55;1.40;;;;;;;;;;5012969;28;20461;-93
2023/05/09 12:09:38;;;;;;;4.68;1.52;;;;;;;;;;5013480;28;20054;-89
2023/05/09 12:12:12;;;;;;;1.73;1.55;;;;;;;;;;5012949;28;20057;-88
2023/05/09 12:14:40;;;;;;;4.45;1.30;;;;;;;;;;5013582;28;20053;-89
2023/05/09 12:17:07;;;;;;;1.35;1.10;;;;;;;;;;5013550;28;20056;-89
2023/05/09 12:19:35;;;;;;;4.25;1.40;;;;;;;;;;5012857;28;20418;-88
2023/05/09 12:22:05;;;;;;;1.58;1.48;;;;;;;;;;5012714;28;20061;-89
2023/05/09 12:24:35;;;;;;;3.53;1.20;;;;;;;;;;5013021;28;20384;-89
2023/05/09 12:27:03;;;;;;;1.48;1.20;;;;;;;;;;5013320;28;20414;-91
2023/05/09 12:29:31;;;;;;;2.03;1.20;;;;;;;;;;5013279;28;20050;-90
2023/05/09 12:31:58;;;;;;;3.35;1.50;;;;;;;;;;5013818;28;20558;-88
2023/05/09 12:34:26;;;;;;;3.03;1.50;;;;;;;;;;5024771;28;20046;-89
2023/05/09 12:36:53;;;;;;;1.65;1.55;;;;;;;;;;5016856;28;20054;-88
2023/05/09 12:39:21;;;;;;;2.83;1.55;;;;;;;;;;5013552;28;20053;-88
2023/05/09 12:41:49;;;;;;;1.17;1.08;;;;;;;;;;5013115;28;20092;-93
2023/05/09 12:44:28;;;;;;;1.15;0.90;;;;;;;;;;5013951;28;20054;-88
2023/05/09 12:46:57;;;;;;;1.40;1.30;;;;;;;;;;5012724;28;20112;-89
2023/05/09 12:49:24;;;;;;;3.05;1.48;;;;;;;;;;5012898;28;20049;-87
2023/05/09 12:51:52;;;;;;;3.20;1.50;;;;;;;;;;5015418;28;20053;-90
2023/05/09 12:54:23;;;;;;;1.35;1.25;;;;;;;;;;5016334;28;20045;-89
2023/05/09 12:56:51;;;;;;;1.40;1.30;;;;;;;;;;5015937;28;20406;-87
2023/05/09 12:59:26;;;;;;;1.58;1.02;;;;;;;;;;5016779;28;20053;-89
2023/05/09 13:01:54;;;;;;;2.78;1.30;;;;;;;;;;5016714;28;20064;-89
2023/05/09 13:04:21;;;;;;;1.63;1.52;;;;;;;;;;5016198;28;20061;-86
2023/05/09 13:06:50;;;;;;;1.52;1.50;;;;;;;;;;5016548;28;20056;-87
2023/05/09 13:09:17;;;;;;;1.80;1.30;;;;;;;;;;5015782;28;20053;-89
2023/05/09 13:11:46;;;;;;;1.48;1.35;;;;;;;;;;5016030;28;20049;-87
2023/05/09 13:14:14;;;;;;;5.00;1.30;;;;;;;;;;5017287;28;20510;-89
2023/05/09 13:16:41;;;;;;;1.70;1.40;;;;;;;;;;5016027;28;20056;-88
2023/05/09 13:19:08;;;;;;;1.90;1.23;;;;;;;;;;5016089;28;20050;-88
2023/05/09 13:21:36;;;;;;;2.15;1.38;;;;;;;;;;5015766;28;20046;-87
2023/05/09 13:24:04;;;;;;;1.80;1.30;;;;;;;;;;5016418;28;20093;-90
2023/05/09 13:26:31;;;;;;;2.90;1.17;;;;;;;;;;5016812;28;20069;-87
2023/05/09 13:28:59;;;;;;;1.52;1.20;;;;;;;;;;5015996;28;20085;-90
2023/05/09 13:31:26;;;;;;;2.35;1.60;;;;;;;;;;5016847;28;20042;-90
2023/05/09 13:33:53;;;;;;;1.92;1.58;;;;;;;;;;5015684;28;20045;-86
2023/05/09 13:36:20;;;;;;;3.28;1.60;;;;;;;;;;5015516;28;20387;-87
2023/05/09 13:38:48;;;;;;;4.28;1.77;;;;;;;;;;5015892;28;20053;-91
2023/05/09 13:41:19;;;;;;;6.03;1.30;;;;;;;;;;5015446;28;20073;-89
2023/05/09 13:43:46;;;;;;;4.63;1.30;;;;;;;;;;5015617;28;20104;-92
2023/05/09 13:46:14;;;;;;;3.15;1.55;;;;;;;;;;5015911;28;20079;-88
2023/05/09 13:48:41;;;;;;;2.25;1.65;;;;;;;;;;5019152;28;20045;-88
2023/05/09 13:51:09;;;;;;;3.38;1.48;;;;;;;;;;5027505;28;20052;-88
2023/05/09 13:53:37;;;;;;;2.53;1.20;;;;;;;;;;5016083;28;20125;-90
2023/05/09 13:56:06;;;;;;;8.38;2.42;;;;;;;;;;5015134;28;20092;-88
2023/05/09 13:58:33;;;;;;;1.77;1.15;;;;;;;;;;5016026;28;20478;-89
2023/05/09 14:01:01;;;;;;;4.95;1.38;;;;;;;;;;5015194;28;20050;-88
2023/05/09 14:03:29;;;;;;;1.20;0.90;;;;;;;;;;5014472;28;20085;-89
2023/05/09 14:05:56;;;;;;;5.60;1.85;;;;;;;;;;5014567;28;20450;-90
2023/05/09 14:08:24;;;;;;;1.63;1.35;;;;;;;;;;5016205;28;20146;-87
2023/05/09 14:10:52;;;;;;;2.42;1.20;;;;;;;;;;5015085;28;20042;-88
2023/05/09 14:13:19;;;;;;;2.90;1.05;;;;;;;;;;5014632;28;20052;-91
2023/05/09 14:15:46;;;;;;;3.33;1.50;;;;;;;;;;5015121;28;20046;-89
2023/05/09 14:18:16;;;;;;;2.65;1.40;;;;;;;;;;5014546;28;20054;-87
2023/05/09 14:20:47;;;;;;;5.95;1.15;;;;;;;;;;5014581;28;20065;-89
2023/05/09 14:23:14;;;;;;;1.20;0.95;;;;;;;;;;5014185;28;20144;-88
2023/05/09 14:25:41;;;;;;;3.80;1.30;;;;;;;;;;5014331;28;20137;-87
2023/05/09 14:28:09;;;;;;;2.88;1.10;;;;;;;;;;5015707;28;20080;-88
2023/05/09 14:30:36;;;;;;;1.80;1.35;;;;;;;;;;5015202;28;20053;-88
2023/05/09 14:33:03;;;;;;;1.20;0.90;;;;;;;;;;5016448;28;20061;-88
2023/05/09 14:35:32;;;;;;;3.03;0.90;;;;;;;;;;5014041;28;20531;-88
2023/05/09 14:38:00;;;;;;;2.10;0.90;;;;;;;;;;5013760;28;20054;-88
2023/05/09 14:40:31;;;;;;;4.93;1.20;;;;;;;;;;5014598;28;20173;-88
2023/05/09 14:43:01;;;;;;;7.00;1.38;;;;;;;;;;5013861;28;20053;-87
2023/05/09 14:45:28;;;;;;;1.02;0.88;;;;;;;;;;5013908;28;20049;-87
2023/05/09 14:47:56;;;;;;;3.70;1.42;;;;;;;;;;5014184;28;20054;-94